Kostomuksha, Russia
Current Conditions -  °F | °C
As of 10:20 AM on Sunday 23 Nov 2014 (Local Time) from EFKI Reporting Station
Overcast Overcast  
Wind Chill: 27°   Ceiling: 400
Heat Index: 27°   Visibility: 6mi
Dew Point: 25°   Wind: 2mph
Humidity: 93%   Direction: 110°ESE
Pressure: 30.45"   Gusts: NA
Location:  64.68°N, 30.82°E
Report Text: EFKI 230720Z AUTO 11002KT 9999 OVC004 M03/M04 Q1031
Loading
Personal Weather Stations






























Interactive Weather Map New forecast layout! Learn more

10-Day Weather Forecast

Advertisements
Track Severe Weather on mobile